Аэропорт: Запорожье. Запорожье

ICAO: UKDE

METAR:
2019/01/21 23:00
UKDE 212300Z 34006MPS 9999 BKN010 M07/M08 Q1021 R02R/750342 NOSIG
METAR:
2018/07/21 03:48
TAF 
      AMD TAF 
      AMD UKDE 210346Z 2103/2115 24003MPS 9999 SCT033CB TX28/2112Z TN20/2103Z 
      TEMPO 2103/2105 VRB01MPS 
      TEMPO 2108/2112 -SHRA BKN020CB